createdAt,value
2022-12-08T00:00:07.302Z,99533.30
2022-12-08T00:03:14.815Z,99533.88
2022-12-08T00:06:17.556Z,99529.39
2022-12-08T00:09:06.574Z,99535.30
2022-12-08T00:11:40.340Z,99537.33
2022-12-08T00:14:14.854Z,99542.57
2022-12-08T00:16:45.051Z,99546.77
2022-12-08T00:19:16.891Z,99544.73
2022-12-08T00:21:55.075Z,99548.84
2022-12-08T00:24:45.781Z,99549.96
2022-12-08T00:27:41.074Z,99557.86
2022-12-08T00:30:22.907Z,99564.16
2022-12-08T00:33:05.791Z,99571.75
2022-12-08T00:35:43.401Z,99577.41
2022-12-08T00:38:19.230Z,99575.63
2022-12-08T00:40:55.471Z,99581.08
2022-12-08T00:43:33.126Z,99585.69
2022-12-08T00:46:15.156Z,99583.23
2022-12-08T00:49:04.072Z,99585.03
2022-12-08T00:51:42.915Z,99586.02
2022-12-08T00:54:22.484Z,99590.55
2022-12-08T00:56:59.883Z,99592.27
2022-12-08T00:59:42.987Z,99604.35
2022-12-08T01:02:40.017Z,99606.47
2022-12-08T01:05:38.707Z,99608.41
2022-12-08T01:08:28.654Z,99609.29
2022-12-08T01:11:21.436Z,99609.66
2022-12-08T01:15:02.451Z,99609.11
2022-12-08T01:21:29.117Z,99620.06
2022-12-08T01:24:18.132Z,99620.69
2022-12-08T01:27:09.501Z,99623.48
2022-12-08T01:29:56.134Z,99625.73
2022-12-08T01:32:40.606Z,99624.94
2022-12-08T01:35:23.976Z,99622.33
2022-12-08T01:38:08.126Z,99624.14
2022-12-08T01:40:48.605Z,99621.41
2022-12-08T01:43:30.535Z,99621.56
2022-12-08T01:46:23.997Z,99619.73
2022-12-08T01:49:58.268Z,99625.66
2022-12-08T01:53:29.738Z,99626.68
2022-12-08T01:56:47.928Z,99626.10
2022-12-08T01:59:48.524Z,99625.50
2022-12-08T02:02:50.147Z,99623.93
2022-12-08T02:05:49.462Z,99627.81
2022-12-08T02:08:57.492Z,99626.95
2022-12-08T02:11:51.120Z,99629.39
2022-12-08T02:14:29.993Z,99626.27
2022-12-08T02:17:30.940Z,99624.83
2022-12-08T02:20:42.504Z,99627.01
2022-12-08T02:23:21.360Z,99625.89
2022-12-08T02:26:21.864Z,99629.50
2022-12-08T02:29:38.128Z,99635.52
2022-12-08T02:32:24.095Z,99634.36
2022-12-08T02:35:24.314Z,99633.54
2022-12-08T02:38:39.804Z,99631.56
2022-12-08T02:41:48.103Z,99630.55
2022-12-08T02:44:42.383Z,99635.17
2022-12-08T02:47:28.930Z,99636.88
2022-12-08T02:50:25.389Z,99639.62
2022-12-08T02:56:26.392Z,99643.85
2022-12-08T02:59:51.560Z,99652.67
2022-12-08T03:02:39.756Z,99651.41
2022-12-08T03:05:50.491Z,99651.37
2022-12-08T03:09:37.329Z,99653.39
2022-12-08T03:12:44.567Z,99659.78
2022-12-08T03:16:00.453Z,99657.83
2022-12-08T03:19:49.934Z,99663.74
2022-12-08T03:22:59.334Z,99669.02
2022-12-08T03:33:24.110Z,99684.52
2022-12-08T03:43:49.873Z,99678.52
2022-12-08T03:46:57.407Z,99681.56
2022-12-08T03:49:50.397Z,99683.11
2022-12-08T03:52:46.920Z,99680.64
2022-12-08T03:56:01.868Z,99683.83
2022-12-08T03:59:41.166Z,99679.21
2022-12-08T04:10:45.418Z,99689.40
2022-12-08T04:22:21.466Z,99704.02
2022-12-08T04:23:50.263Z,99691.63
2022-12-08T04:36:34.405Z,99715.33
2022-12-08T04:40:00.168Z,99722.98
2022-12-08T04:43:23.894Z,99722.36
2022-12-08T04:46:30.550Z,99718.75
2022-12-08T04:49:33.250Z,99720.64
2022-12-08T04:52:50.623Z,99724.52
2022-12-08T04:55:49.167Z,99719.04
2022-12-08T04:59:24.191Z,99721.92
2022-12-08T05:02:30.413Z,99719.98
2022-12-08T05:05:54.782Z,99725.26
2022-12-08T05:08:46.745Z,99736.13
2022-12-08T05:11:38.585Z,99736.73
2022-12-08T05:14:39.306Z,99737.79
2022-12-08T05:17:27.996Z,99734.07
2022-12-08T05:20:14.696Z,99734.02
2022-12-08T05:23:00.513Z,99733.91
2022-12-08T05:25:47.869Z,99736.89
2022-12-08T05:28:42.724Z,99743.34
2022-12-08T05:31:42.732Z,99744.33
2022-12-08T05:34:45.498Z,99741.16
2022-12-08T05:46:39.670Z,99733.52
2022-12-08T05:57:27.578Z,99743.55
2022-12-08T06:00:14.316Z,99751.16
2022-12-08T06:02:52.795Z,99758.08
2022-12-08T06:05:23.125Z,99767.61
2022-12-08T06:07:54.959Z,99771.17
2022-12-08T06:10:24.265Z,99773.42
2022-12-08T06:16:09.485Z,99781.02
2022-12-08T06:18:39.607Z,99786.36
2022-12-08T06:21:12.543Z,99789.79
2022-12-08T06:23:42.472Z,99801.88
2022-12-08T06:26:18.861Z,99798.54
2022-12-08T06:28:49.101Z,99805.83
2022-12-08T06:31:26.759Z,99803.82
2022-12-08T06:34:00.432Z,99801.95
2022-12-08T06:36:35.600Z,99801.96
2022-12-08T06:39:04.616Z,99802.17
2022-12-08T06:41:33.452Z,99801.47
2022-12-08T06:44:03.013Z,99797.17
2022-12-08T06:46:33.664Z,99797.34
2022-12-08T06:49:03.625Z,99796.41
2022-12-08T06:51:33.726Z,99799.02
2022-12-08T06:54:02.671Z,99802.88
2022-12-08T06:56:32.232Z,99804.23
2022-12-08T06:59:02.338Z,99807.81
2022-12-08T07:01:37.839Z,99814.13
2022-12-08T07:04:08.935Z,99816.80
2022-12-08T07:06:38.437Z,99819.10
2022-12-08T07:09:08.410Z,99820.12
2022-12-08T07:11:40.087Z,99818.79
2022-12-08T07:14:15.583Z,99819.83
2022-12-08T07:16:45.428Z,99818.77
2022-12-08T07:19:15.009Z,99826.79
2022-12-08T07:21:49.602Z,99830.65
2022-12-08T07:24:29.105Z,99832.55
2022-12-08T07:27:06.930Z,99831.46
2022-12-08T07:29:39.397Z,99836.84
2022-12-08T07:32:11.373Z,99837.52
2022-12-08T07:34:42.369Z,99836.17
2022-12-08T07:37:11.926Z,99835.41
2022-12-08T07:39:49.055Z,99836.92
2022-12-08T07:42:25.832Z,99841.23
2022-12-08T07:45:03.367Z,99840.67
2022-12-08T07:47:39.440Z,99840.06
2022-12-08T07:50:14.414Z,99844.39
2022-12-08T07:52:55.865Z,99847.67
2022-12-08T07:55:30.537Z,99849.73
2022-12-08T07:58:06.876Z,99850.63
2022-12-08T08:00:46.424Z,99849.90
2022-12-08T08:03:30.682Z,99856.54
2022-12-08T08:06:10.252Z,99860.89
2022-12-08T08:08:46.434Z,99860.33
2022-12-08T08:11:24.632Z,99861.98
2022-12-08T08:14:02.680Z,99858.19
2022-12-08T08:16:38.798Z,99854.63
2022-12-08T08:19:12.384Z,99856.48
2022-12-08T08:21:46.855Z,99857.52
2022-12-08T08:24:28.227Z,99862.48
2022-12-08T08:27:04.529Z,99864.14
2022-12-08T08:29:40.093Z,99871.35
2022-12-08T08:32:17.153Z,99874.98
2022-12-08T08:34:57.046Z,99874.55
2022-12-08T08:37:35.955Z,99877.65
2022-12-08T08:40:16.286Z,99885.61
2022-12-08T08:42:55.218Z,99885.38
2022-12-08T08:45:30.763Z,99879.52
2022-12-08T08:48:04.171Z,99879.59
2022-12-08T08:50:40.338Z,99880.85
2022-12-08T08:53:15.952Z,99884.24
2022-12-08T08:55:54.438Z,99882.77
2022-12-08T08:58:28.978Z,99879.48
2022-12-08T09:01:03.975Z,99877.14
2022-12-08T09:03:39.868Z,99881.13
2022-12-08T09:06:17.444Z,99881.77
2022-12-08T09:08:51.748Z,99877.50
2022-12-08T09:12:30.002Z,99876.31
2022-12-08T09:16:11.007Z,99877.04
2022-12-08T09:18:58.207Z,99879.16
2022-12-08T09:21:33.509Z,99874.02
2022-12-08T09:32:40.651Z,99867.48
2022-12-08T09:35:12.155Z,99866.73
2022-12-08T09:37:41.764Z,99866.38
2022-12-08T09:40:28.678Z,99864.23
2022-12-08T09:43:10.853Z,99863.78
2022-12-08T09:45:43.149Z,99866.15
2022-12-08T09:48:19.911Z,99870.35
2022-12-08T09:54:20.210Z,99856.75
2022-12-08T09:57:06.511Z,99854.01
2022-12-08T09:59:43.038Z,99849.06
2022-12-08T10:02:30.395Z,99843.05
2022-12-08T10:05:06.612Z,99837.90
2022-12-08T10:08:26.097Z,99835.42
2022-12-08T10:11:15.796Z,99835.35
2022-12-08T10:14:30.753Z,99834.14
2022-12-08T10:17:25.016Z,99832.76
2022-12-08T10:20:32.308Z,99831.59
2022-12-08T10:23:18.653Z,99828.39
2022-12-08T10:26:10.086Z,99828.56
2022-12-08T10:28:55.774Z,99834.67
2022-12-08T10:31:39.169Z,99831.76
2022-12-08T10:34:29.867Z,99825.95
2022-12-08T10:37:17.086Z,99828.52
2022-12-08T10:40:08.159Z,99821.02
2022-12-08T10:43:01.780Z,99818.38
2022-12-08T10:45:55.159Z,99815.88
2022-12-08T10:48:43.235Z,99806.58
2022-12-08T10:51:49.399Z,99803.52
2022-12-08T10:54:43.887Z,99798.93
2022-12-08T10:57:37.006Z,99795.43
2022-12-08T11:00:15.466Z,99795.25
2022-12-08T11:03:03.213Z,99795.30
2022-12-08T11:05:36.329Z,99796.10
2022-12-08T11:08:06.500Z,99789.48
2022-12-08T11:10:44.150Z,99783.77
2022-12-08T11:13:21.494Z,99782.44
2022-12-08T11:15:50.799Z,99782.58
2022-12-08T11:18:41.187Z,99784.70
2022-12-08T11:21:17.803Z,99783.96
2022-12-08T11:23:50.906Z,99782.73
2022-12-08T11:26:32.707Z,99778.77
2022-12-08T11:29:00.553Z,99779.03
2022-12-08T11:31:35.858Z,99780.88
2022-12-08T11:34:04.524Z,99779.95
2022-12-08T11:36:35.871Z,99784.08
2022-12-08T11:39:05.971Z,99783.17
2022-12-08T11:41:39.453Z,99780.50
2022-12-08T11:44:22.417Z,99780.82
2022-12-08T11:47:00.272Z,99780.65
2022-12-08T11:49:39.851Z,99774.41
2022-12-08T11:52:47.836Z,99766.39
2022-12-08T11:55:36.965Z,99771.28
2022-12-08T11:58:42.176Z,99770.54
2022-12-08T12:01:28.705Z,99769.89
2022-12-08T12:04:49.965Z,99768.65
2022-12-08T12:07:33.797Z,99767.98
2022-12-08T12:10:46.119Z,99765.88
2022-12-08T12:13:22.475Z,99762.95
2022-12-08T12:16:24.349Z,99768.51
2022-12-08T12:19:05.009Z,99763.20
2022-12-08T12:21:59.262Z,99754.73
2022-12-08T12:24:36.258Z,99750.83
2022-12-08T12:27:22.240Z,99749.93
2022-12-08T12:29:59.451Z,99746.55
2022-12-08T12:32:45.532Z,99746.66
2022-12-08T12:35:26.811Z,99743.31
2022-12-08T12:38:04.084Z,99741.20
2022-12-08T12:40:49.662Z,99739.42
2022-12-08T12:43:32.176Z,99738.17
2022-12-08T12:46:24.493Z,99739.41
2022-12-08T12:49:35.609Z,99735.09
2022-12-08T12:52:16.615Z,99724.50
2022-12-08T12:54:53.331Z,99727.78
2022-12-08T12:57:53.336Z,99722.84
2022-12-08T13:06:46.324Z,99710.27
2022-12-08T13:09:35.527Z,99710.92
2022-12-08T13:12:13.444Z,99716.73
2022-12-08T13:14:52.220Z,99715.77
2022-12-08T13:17:29.554Z,99714.73
2022-12-08T13:20:02.682Z,99719.06
2022-12-08T13:23:02.125Z,99715.84
2022-12-08T13:25:45.885Z,99722.01
2022-12-08T13:37:14.177Z,99715.25
2022-12-08T13:39:52.173Z,99715.29
2022-12-08T13:42:47.719Z,99715.08
2022-12-08T13:45:58.980Z,99714.98
2022-12-08T13:57:37.206Z,99710.69
2022-12-08T14:00:17.670Z,99707.64
2022-12-08T14:09:10.403Z,99703.59
2022-12-08T14:11:56.915Z,99698.52
2022-12-08T14:17:27.412Z,99692.98
2022-12-08T14:20:23.907Z,99696.47
2022-12-08T14:22:56.158Z,99695.23
2022-12-08T14:25:32.896Z,99694.20
2022-12-08T14:28:07.927Z,99697.59
2022-12-08T14:30:41.032Z,99696.56
2022-12-08T14:33:17.330Z,99697.98
2022-12-08T14:35:57.445Z,99701.63
2022-12-08T14:38:27.597Z,99700.95
2022-12-08T14:41:09.897Z,99701.86
2022-12-08T14:43:41.978Z,99704.98
2022-12-08T14:46:24.619Z,99704.64
2022-12-08T14:48:55.549Z,99704.31
2022-12-08T14:51:33.914Z,99707.36
2022-12-08T14:54:09.821Z,99706.79
2022-12-08T14:56:54.086Z,99706.15
2022-12-08T14:59:31.477Z,99703.42
2022-12-08T15:02:20.232Z,99705.59
2022-12-08T15:04:57.855Z,99702.66
2022-12-08T15:07:31.793Z,99701.00
2022-12-08T15:10:33.192Z,99702.04
2022-12-08T15:13:13.095Z,99703.73
2022-12-08T15:15:46.959Z,99698.73
2022-12-08T15:18:19.982Z,99701.91
2022-12-08T15:20:57.302Z,99701.14
2022-12-08T15:23:38.807Z,99694.66
2022-12-08T15:26:10.115Z,99693.70
